sensor_id;sensor_type;location;lat;lon;timestamp;temperature;humidity
1063;DHT22;520;50.932;6.962;2022-07-29T00:01:44;23.30;54.90
1063;DHT22;520;50.932;6.962;2022-07-29T00:04:11;23.20;54.90
1063;DHT22;520;50.932;6.962;2022-07-29T00:06:40;23.20;54.90
1063;DHT22;520;50.932;6.962;2022-07-29T00:09:06;23.10;54.90
1063;DHT22;520;50.932;6.962;2022-07-29T00:11:33;23.20;55.00
1063;DHT22;520;50.932;6.962;2022-07-29T00:14:00;23.20;55.10
1063;DHT22;520;50.932;6.962;2022-07-29T00:16:27;23.20;55.00
1063;DHT22;520;50.932;6.962;2022-07-29T00:18:53;23.20;55.10
1063;DHT22;520;50.932;6.962;2022-07-29T00:21:20;23.40;55.40
1063;DHT22;520;50.932;6.962;2022-07-29T00:23:47;23.50;55.10
1063;DHT22;520;50.932;6.962;2022-07-29T00:26:14;23.50;55.30
1063;DHT22;520;50.932;6.962;2022-07-29T00:28:40;23.40;55.20
1063;DHT22;520;50.932;6.962;2022-07-29T00:31:07;23.40;55.30
1063;DHT22;520;50.932;6.962;2022-07-29T00:33:35;23.40;55.40
1063;DHT22;520;50.932;6.962;2022-07-29T00:36:02;23.40;55.40
1063;DHT22;520;50.932;6.962;2022-07-29T00:38:29;23.30;55.50
1063;DHT22;520;50.932;6.962;2022-07-29T00:40:56;23.30;55.60
1063;DHT22;520;50.932;6.962;2022-07-29T00:43:22;23.30;55.70
1063;DHT22;520;50.932;6.962;2022-07-29T00:45:49;23.30;55.70
1063;DHT22;520;50.932;6.962;2022-07-29T00:48:16;23.30;55.70
1063;DHT22;520;50.932;6.962;2022-07-29T00:50:42;23.30;55.50
1063;DHT22;520;50.932;6.962;2022-07-29T00:53:11;23.50;55.20
1063;DHT22;520;50.932;6.962;2022-07-29T00:55:38;23.50;55.20
1063;DHT22;520;50.932;6.962;2022-07-29T00:58:05;23.60;55.00
1063;DHT22;520;50.932;6.962;2022-07-29T01:00:33;23.50;55.30
1063;DHT22;520;50.932;6.962;2022-07-29T01:03:00;23.50;55.70
1063;DHT22;520;50.932;6.962;2022-07-29T01:05:28;23.40;55.80
1063;DHT22;520;50.932;6.962;2022-07-29T01:08:15;23.30;56.00
1063;DHT22;520;50.932;6.962;2022-07-29T01:10:42;23.20;56.60
1063;DHT22;520;50.932;6.962;2022-07-29T01:13:11;23.20;57.00
1063;DHT22;520;50.932;6.962;2022-07-29T01:15:44;23.10;57.30
1063;DHT22;520;50.932;6.962;2022-07-29T01:18:37;23.10;57.50
1063;DHT22;520;50.932;6.962;2022-07-29T01:29:28;23.10;58.00
1063;DHT22;520;50.932;6.962;2022-07-29T01:32:11;23.10;58.00
1063;DHT22;520;50.932;6.962;2022-07-29T01:37:39;23.00;57.70
1063;DHT22;520;50.932;6.962;2022-07-29T01:40:41;23.00;57.80
1063;DHT22;520;50.932;6.962;2022-07-29T01:43:11;23.00;57.70
1063;DHT22;520;50.932;6.962;2022-07-29T01:45:41;23.00;57.60
1063;DHT22;520;50.932;6.962;2022-07-29T01:53:16;23.10;56.90
1063;DHT22;520;50.932;6.962;2022-07-29T01:55:44;23.10;56.90
1063;DHT22;520;50.932;6.962;2022-07-29T01:58:14;23.20;56.60
1063;DHT22;520;50.932;6.962;2022-07-29T02:00:44;23.00;56.50
1063;DHT22;520;50.932;6.962;2022-07-29T02:03:12;22.90;56.40
1063;DHT22;520;50.932;6.962;2022-07-29T02:05:41;22.80;56.40
1063;DHT22;520;50.932;6.962;2022-07-29T02:08:09;22.70;56.50
1063;DHT22;520;50.932;6.962;2022-07-29T02:10:38;22.80;56.80
1063;DHT22;520;50.932;6.962;2022-07-29T02:13:07;23.00;56.80
1063;DHT22;520;50.932;6.962;2022-07-29T02:15:36;23.30;56.40
1063;DHT22;520;50.932;6.962;2022-07-29T02:18:17;23.00;56.20
1063;DHT22;520;50.932;6.962;2022-07-29T02:20:47;22.80;56.60
1063;DHT22;520;50.932;6.962;2022-07-29T02:23:18;22.80;57.60
1063;DHT22;520;50.932;6.962;2022-07-29T02:25:49;22.70;56.80
1063;DHT22;520;50.932;6.962;2022-07-29T02:28:17;22.60;56.90
1063;DHT22;520;50.932;6.962;2022-07-29T02:30:45;22.60;57.20
1063;DHT22;520;50.932;6.962;2022-07-29T02:33:14;22.60;57.30
1063;DHT22;520;50.932;6.962;2022-07-29T02:35:45;22.50;57.40
1063;DHT22;520;50.932;6.962;2022-07-29T02:38:15;22.60;57.30
1063;DHT22;520;50.932;6.962;2022-07-29T02:41:08;22.60;57.20
1063;DHT22;520;50.932;6.962;2022-07-29T02:43:39;22.60;57.30
1063;DHT22;520;50.932;6.962;2022-07-29T02:46:18;22.50;57.50
1063;DHT22;520;50.932;6.962;2022-07-29T02:49:31;22.60;57.50
1063;DHT22;520;50.932;6.962;2022-07-29T02:52:04;22.50;57.70
1063;DHT22;520;50.932;6.962;2022-07-29T02:54:41;22.40;57.80
1063;DHT22;520;50.932;6.962;2022-07-29T02:57:21;22.40;58.00
1063;DHT22;520;50.932;6.962;2022-07-29T02:59:51;22.30;58.00
1063;DHT22;520;50.932;6.962;2022-07-29T03:02:20;22.20;58.20
1063;DHT22;520;50.932;6.962;2022-07-29T03:04:48;22.10;58.20
1063;DHT22;520;50.932;6.962;2022-07-29T03:07:18;22.20;58.20
1063;DHT22;520;50.932;6.962;2022-07-29T03:09:45;22.20;58.00
1063;DHT22;520;50.932;6.962;2022-07-29T03:12:12;22.20;57.90
1063;DHT22;520;50.932;6.962;2022-07-29T03:14:40;22.20;57.60
1063;DHT22;520;50.932;6.962;2022-07-29T03:17:09;22.10;58.90
1063;DHT22;520;50.932;6.962;2022-07-29T03:19:36;21.90;59.80
1063;DHT22;520;50.932;6.962;2022-07-29T03:22:02;21.90;60.70
1063;DHT22;520;50.932;6.962;2022-07-29T03:24:31;21.80;61.30
1063;DHT22;520;50.932;6.962;2022-07-29T03:26:58;21.70;61.70
1063;DHT22;520;50.932;6.962;2022-07-29T03:29:25;21.80;61.90
1063;DHT22;520;50.932;6.962;2022-07-29T03:31:58;21.70;62.00
1063;DHT22;520;50.932;6.962;2022-07-29T03:34:25;21.70;61.90
1063;DHT22;520;50.932;6.962;2022-07-29T03:36:52;21.80;61.90
1063;DHT22;520;50.932;6.962;2022-07-29T03:39:23;21.80;61.80
1063;DHT22;520;50.932;6.962;2022-07-29T03:41:55;21.90;62.10
1063;DHT22;520;50.932;6.962;2022-07-29T03:44:22;21.90;61.70
1063;DHT22;520;50.932;6.962;2022-07-29T03:46:50;21.80;61.90
1063;DHT22;520;50.932;6.962;2022-07-29T03:49:19;21.70;62.30
1063;DHT22;520;50.932;6.962;2022-07-29T03:51:48;21.80;62.60
1063;DHT22;520;50.932;6.962;2022-07-29T03:54:15;21.70;62.70
1063;DHT22;520;50.932;6.962;2022-07-29T03:56:45;21.70;62.60
1063;DHT22;520;50.932;6.962;2022-07-29T03:59:15;21.60;63.00
1063;DHT22;520;50.932;6.962;2022-07-29T04:01:42;22.00;62.30
1063;DHT22;520;50.932;6.962;2022-07-29T04:04:10;21.90;62.30
1063;DHT22;520;50.932;6.962;2022-07-29T04:06:41;21.70;62.60
1063;DHT22;520;50.932;6.962;2022-07-29T04:09:08;21.70;62.60
1063;DHT22;520;50.932;6.962;2022-07-29T04:11:39;21.40;62.60
1063;DHT22;520;50.932;6.962;2022-07-29T04:14:22;21.40;63.10
1063;DHT22;520;50.932;6.962;2022-07-29T04:16:49;21.40;62.60
1063;DHT22;520;50.932;6.962;2022-07-29T04:19:20;21.30;62.60
1063;DHT22;520;50.932;6.962;2022-07-29T04:22:02;21.20;62.90
1063;DHT22;520;50.932;6.962;2022-07-29T04:24:29;21.40;62.90
1063;DHT22;520;50.932;6.962;2022-07-29T04:26:56;21.20;62.70
1063;DHT22;520;50.932;6.962;2022-07-29T04:29:23;21.20;62.90
1063;DHT22;520;50.932;6.962;2022-07-29T04:31:49;21.40;63.10
1063;DHT22;520;50.932;6.962;2022-07-29T04:34:16;21.30;63.00
1063;DHT22;520;50.932;6.962;2022-07-29T04:36:43;21.20;63.40
1063;DHT22;520;50.932;6.962;2022-07-29T04:39:10;21.50;63.20
1063;DHT22;520;50.932;6.962;2022-07-29T04:41:37;21.40;63.50
1063;DHT22;520;50.932;6.962;2022-07-29T04:44:03;21.40;63.80
1063;DHT22;520;50.932;6.962;2022-07-29T04:46:33;21.40;63.40
1063;DHT22;520;50.932;6.962;2022-07-29T04:49:00;21.40;62.80
1063;DHT22;520;50.932;6.962;2022-07-29T04:51:27;21.30;63.20
1063;DHT22;520;50.932;6.962;2022-07-29T04:53:54;21.20;63.50
1063;DHT22;520;50.932;6.962;2022-07-29T04:56:21;21.30;63.80
1063;DHT22;520;50.932;6.962;2022-07-29T04:58:47;21.40;63.80
1063;DHT22;520;50.932;6.962;2022-07-29T05:01:14;21.50;62.90
1063;DHT22;520;50.932;6.962;2022-07-29T05:03:41;21.50;62.60
1063;DHT22;520;50.932;6.962;2022-07-29T05:06:08;21.60;62.10
1063;DHT22;520;50.932;6.962;2022-07-29T05:08:35;21.50;62.10
1063;DHT22;520;50.932;6.962;2022-07-29T05:11:02;21.40;62.30
1063;DHT22;520;50.932;6.962;2022-07-29T05:13:37;21.30;62.70
1063;DHT22;520;50.932;6.962;2022-07-29T05:16:11;21.30;62.90
1063;DHT22;520;50.932;6.962;2022-07-29T05:18:39;21.40;63.10
1063;DHT22;520;50.932;6.962;2022-07-29T05:21:06;21.40;62.60
1063;DHT22;520;50.932;6.962;2022-07-29T05:23:33;21.60;62.00
1063;DHT22;520;50.932;6.962;2022-07-29T05:25:59;21.50;61.70
1063;DHT22;520;50.932;6.962;2022-07-29T05:28:26;21.60;61.90
1063;DHT22;520;50.932;6.962;2022-07-29T05:30:53;21.40;62.20
1063;DHT22;520;50.932;6.962;2022-07-29T05:33:20;21.40;62.40
1063;DHT22;520;50.932;6.962;2022-07-29T05:36:01;21.50;62.30
1063;DHT22;520;50.932;6.962;2022-07-29T05:38:28;21.60;62.00
1063;DHT22;520;50.932;6.962;2022-07-29T05:40:57;21.40;62.20
1063;DHT22;520;50.932;6.962;2022-07-29T05:43:26;21.40;62.80
1063;DHT22;520;50.932;6.962;2022-07-29T05:45:53;21.40;62.20
1063;DHT22;520;50.932;6.962;2022-07-29T05:48:20;21.50;62.40
1063;DHT22;520;50.932;6.962;2022-07-29T05:50:47;21.50;62.20
1063;DHT22;520;50.932;6.962;2022-07-29T05:53:13;21.50;61.90
1063;DHT22;520;50.932;6.962;2022-07-29T05:55:44;21.50;62.10
1063;DHT22;520;50.932;6.962;2022-07-29T05:58:11;21.70;61.50
1063;DHT22;520;50.932;6.962;2022-07-29T06:00:37;21.80;60.60
1063;DHT22;520;50.932;6.962;2022-07-29T06:03:04;21.90;60.70
1063;DHT22;520;50.932;6.962;2022-07-29T06:05:31;22.20;60.00
1063;DHT22;520;50.932;6.962;2022-07-29T06:07:57;21.90;60.00
1063;DHT22;520;50.932;6.962;2022-07-29T06:10:24;21.80;60.90
1063;DHT22;520;50.932;6.962;2022-07-29T06:12:51;21.70;60.80
1063;DHT22;520;50.932;6.962;2022-07-29T06:15:18;21.70;60.80
1063;DHT22;520;50.932;6.962;2022-07-29T06:17:45;21.80;60.90
1063;DHT22;520;50.932;6.962;2022-07-29T06:20:25;21.80;60.90
1063;DHT22;520;50.932;6.962;2022-07-29T06:22:53;21.80;60.50
1063;DHT22;520;50.932;6.962;2022-07-29T06:25:20;22.00;60.80
1063;DHT22;520;50.932;6.962;2022-07-29T06:27:48;21.90;60.60
1063;DHT22;520;50.932;6.962;2022-07-29T06:30:15;22.00;60.60
1063;DHT22;520;50.932;6.962;2022-07-29T06:32:42;21.90;60.30
1063;DHT22;520;50.932;6.962;2022-07-29T06:35:09;21.90;60.60
1063;DHT22;520;50.932;6.962;2022-07-29T06:37:56;21.90;60.70
1063;DHT22;520;50.932;6.962;2022-07-29T06:40:23;21.80;60.90
1063;DHT22;520;50.932;6.962;2022-07-29T06:43:08;21.70;61.10
1063;DHT22;520;50.932;6.962;2022-07-29T06:45:35;21.60;61.60
1063;DHT22;520;50.932;6.962;2022-07-29T06:48:02;21.90;61.70
1063;DHT22;520;50.932;6.962;2022-07-29T06:50:29;22.00;61.30
1063;DHT22;520;50.932;6.962;2022-07-29T06:52:56;22.00;61.00
1063;DHT22;520;50.932;6.962;2022-07-29T06:55:22;21.90;61.40
1063;DHT22;520;50.932;6.962;2022-07-29T06:57:50;21.80;61.50
1063;DHT22;520;50.932;6.962;2022-07-29T07:00:17;21.80;61.90
1063;DHT22;520;50.932;6.962;2022-07-29T07:02:44;21.80;61.90
1063;DHT22;520;50.932;6.962;2022-07-29T07:05:11;21.80;62.30
1063;DHT22;520;50.932;6.962;2022-07-29T07:07:37;21.70;63.00
1063;DHT22;520;50.932;6.962;2022-07-29T07:10:05;21.90;63.60
1063;DHT22;520;50.932;6.962;2022-07-29T07:12:32;22.20;63.40
1063;DHT22;520;50.932;6.962;2022-07-29T07:14:58;22.40;63.60
1063;DHT22;520;50.932;6.962;2022-07-29T07:17:25;22.50;62.20
1063;DHT22;520;50.932;6.962;2022-07-29T07:19:52;22.40;62.30
1063;DHT22;520;50.932;6.962;2022-07-29T07:22:18;22.20;62.60
1063;DHT22;520;50.932;6.962;2022-07-29T07:24:45;22.70;62.10
1063;DHT22;520;50.932;6.962;2022-07-29T07:27:12;22.80;61.40
1063;DHT22;520;50.932;6.962;2022-07-29T07:29:39;22.80;60.50
1063;DHT22;520;50.932;6.962;2022-07-29T07:32:07;22.50;60.80
1063;DHT22;520;50.932;6.962;2022-07-29T07:34:34;22.30;61.60
1063;DHT22;520;50.932;6.962;2022-07-29T07:37:01;22.50;61.50
1063;DHT22;520;50.932;6.962;2022-07-29T07:39:28;22.40;61.10
1063;DHT22;520;50.932;6.962;2022-07-29T07:41:54;22.50;61.60
1063;DHT22;520;50.932;6.962;2022-07-29T07:44:21;22.70;60.90
1063;DHT22;520;50.932;6.962;2022-07-29T07:46:48;22.80;61.40
1063;DHT22;520;50.932;6.962;2022-07-29T07:49:15;22.60;61.60
1063;DHT22;520;50.932;6.962;2022-07-29T07:51:42;22.30;62.90
1063;DHT22;520;50.932;6.962;2022-07-29T07:54:08;22.00;64.10
1063;DHT22;520;50.932;6.962;2022-07-29T07:56:35;21.90;65.00
1063;DHT22;520;50.932;6.962;2022-07-29T07:59:02;21.90;67.20
1063;DHT22;520;50.932;6.962;2022-07-29T08:01:29;21.80;69.80
1063;DHT22;520;50.932;6.962;2022-07-29T08:03:55;21.70;73.30
1063;DHT22;520;50.932;6.962;2022-07-29T08:06:22;21.60;75.40
1063;DHT22;520;50.932;6.962;2022-07-29T08:08:51;21.50;76.50
1063;DHT22;520;50.932;6.962;2022-07-29T08:11:21;21.40;77.70
1063;DHT22;520;50.932;6.962;2022-07-29T08:13:48;21.50;80.20
1063;DHT22;520;50.932;6.962;2022-07-29T08:16:15;21.50;81.30
1063;DHT22;520;50.932;6.962;2022-07-29T08:18:43;21.50;81.60
1063;DHT22;520;50.932;6.962;2022-07-29T08:21:11;21.60;82.30
1063;DHT22;520;50.932;6.962;2022-07-29T08:23:40;21.60;82.10
1063;DHT22;520;50.932;6.962;2022-07-29T08:26:17;21.70;81.60
1063;DHT22;520;50.932;6.962;2022-07-29T08:28:45;21.80;80.60
1063;DHT22;520;50.932;6.962;2022-07-29T08:31:13;22.50;75.00
1063;DHT22;520;50.932;6.962;2022-07-29T08:33:40;22.70;72.80
1063;DHT22;520;50.932;6.962;2022-07-29T08:36:06;22.70;72.70
1063;DHT22;520;50.932;6.962;2022-07-29T08:38:34;22.60;73.40
1063;DHT22;520;50.932;6.962;2022-07-29T08:41:01;22.80;75.20
1063;DHT22;520;50.932;6.962;2022-07-29T08:43:28;22.80;73.70
1063;DHT22;520;50.932;6.962;2022-07-29T08:45:55;22.60;75.00
1063;DHT22;520;50.932;6.962;2022-07-29T08:48:23;22.50;76.90
1063;DHT22;520;50.932;6.962;2022-07-29T08:50:54;22.20;77.70
1063;DHT22;520;50.932;6.962;2022-07-29T08:53:24;22.00;78.00
1063;DHT22;520;50.932;6.962;2022-07-29T08:55:53;21.90;77.90
1063;DHT22;520;50.932;6.962;2022-07-29T08:58:20;21.90;78.40
1063;DHT22;520;50.932;6.962;2022-07-29T09:00:52;21.90;77.90
1063;DHT22;520;50.932;6.962;2022-07-29T09:03:20;21.90;77.70
1063;DHT22;520;50.932;6.962;2022-07-29T09:05:49;22.00;77.80
1063;DHT22;520;50.932;6.962;2022-07-29T09:08:16;22.30;77.00
1063;DHT22;520;50.932;6.962;2022-07-29T09:10:44;22.70;75.90
1063;DHT22;520;50.932;6.962;2022-07-29T09:13:11;22.80;74.70
1063;DHT22;520;50.932;6.962;2022-07-29T09:15:38;22.60;75.60
1063;DHT22;520;50.932;6.962;2022-07-29T09:18:05;22.50;76.80
1063;DHT22;520;50.932;6.962;2022-07-29T09:20:31;22.50;78.00
1063;DHT22;520;50.932;6.962;2022-07-29T09:23:17;22.50;78.90
1063;DHT22;520;50.932;6.962;2022-07-29T09:25:48;22.50;80.80
1063;DHT22;520;50.932;6.962;2022-07-29T09:28:17;22.50;82.90
1063;DHT22;520;50.932;6.962;2022-07-29T09:30:56;22.50;83.10
1063;DHT22;520;50.932;6.962;2022-07-29T09:33:30;22.50;84.10
1063;DHT22;520;50.932;6.962;2022-07-29T09:36:06;22.60;84.30
1063;DHT22;520;50.932;6.962;2022-07-29T09:38:34;22.90;84.50
1063;DHT22;520;50.932;6.962;2022-07-29T09:41:04;23.20;82.70
1063;DHT22;520;50.932;6.962;2022-07-29T09:43:33;23.30;82.00
1063;DHT22;520;50.932;6.962;2022-07-29T09:46:13;23.10;81.60
1063;DHT22;520;50.932;6.962;2022-07-29T09:48:40;23.10;80.90
1063;DHT22;520;50.932;6.962;2022-07-29T09:51:20;23.00;80.80
1063;DHT22;520;50.932;6.962;2022-07-29T09:53:53;23.00;80.60
1063;DHT22;520;50.932;6.962;2022-07-29T09:56:45;23.20;80.10
1063;DHT22;520;50.932;6.962;2022-07-29T09:59:10;23.10;79.70
1063;DHT22;520;50.932;6.962;2022-07-29T10:01:38;23.00;80.40
1063;DHT22;520;50.932;6.962;2022-07-29T10:04:05;22.90;81.30
1063;DHT22;520;50.932;6.962;2022-07-29T10:06:32;22.90;81.40
1063;DHT22;520;50.932;6.962;2022-07-29T10:09:08;22.90;81.50
1063;DHT22;520;50.932;6.962;2022-07-29T10:11:35;22.90;80.50
1063;DHT22;520;50.932;6.962;2022-07-29T10:14:14;23.00;80.10
1063;DHT22;520;50.932;6.962;2022-07-29T10:16:41;23.00;78.80
1063;DHT22;520;50.932;6.962;2022-07-29T10:19:09;23.10;78.20
1063;DHT22;520;50.932;6.962;2022-07-29T10:21:36;23.20;78.30
1063;DHT22;520;50.932;6.962;2022-07-29T10:24:04;23.20;78.00
1063;DHT22;520;50.932;6.962;2022-07-29T10:26:32;23.50;77.50
1063;DHT22;520;50.932;6.962;2022-07-29T10:29:00;23.50;75.60
1063;DHT22;520;50.932;6.962;2022-07-29T10:34:32;23.60;73.80
1063;DHT22;520;50.932;6.962;2022-07-29T10:37:24;23.80;73.60
1063;DHT22;520;50.932;6.962;2022-07-29T10:40:35;23.90;74.10
1063;DHT22;520;50.932;6.962;2022-07-29T10:43:29;24.10;74.40
1063;DHT22;520;50.932;6.962;2022-07-29T10:45:59;24.20;73.10
1063;DHT22;520;50.932;6.962;2022-07-29T10:48:26;24.50;73.20
1063;DHT22;520;50.932;6.962;2022-07-29T10:50:58;25.10;71.70
1063;DHT22;520;50.932;6.962;2022-07-29T10:54:01;26.00;68.20
1063;DHT22;520;50.932;6.962;2022-07-29T10:56:35;26.30;66.00
1063;DHT22;520;50.932;6.962;2022-07-29T11:01:48;26.70;61.80
1063;DHT22;520;50.932;6.962;2022-07-29T11:07:12;27.60;58.30
1063;DHT22;520;50.932;6.962;2022-07-29T11:09:40;27.30;58.50
1063;DHT22;520;50.932;6.962;2022-07-29T11:15:16;27.40;58.60
1063;DHT22;520;50.932;6.962;2022-07-29T11:20:40;27.80;57.70
1063;DHT22;520;50.932;6.962;2022-07-29T11:23:31;28.00;57.00
1063;DHT22;520;50.932;6.962;2022-07-29T11:31:41;28.60;54.50
1063;DHT22;520;50.932;6.962;2022-07-29T11:34:29;29.10;53.90
1063;DHT22;520;50.932;6.962;2022-07-29T11:39:44;29.90;50.30
1063;DHT22;520;50.932;6.962;2022-07-29T11:44:58;28.80;51.30
1063;DHT22;520;50.932;6.962;2022-07-29T11:47:29;29.10;51.00
1063;DHT22;520;50.932;6.962;2022-07-29T11:49:58;29.50;50.20
1063;DHT22;520;50.932;6.962;2022-07-29T11:52:35;29.10;50.60
1063;DHT22;520;50.932;6.962;2022-07-29T11:55:05;28.90;51.50
1063;DHT22;520;50.932;6.962;2022-07-29T11:57:35;29.40;51.20
1063;DHT22;520;50.932;6.962;2022-07-29T12:00:07;29.50;50.50
1063;DHT22;520;50.932;6.962;2022-07-29T12:02:42;29.50;50.70
1063;DHT22;520;50.932;6.962;2022-07-29T12:05:10;29.60;50.90
1063;DHT22;520;50.932;6.962;2022-07-29T12:07:38;29.50;50.10
1063;DHT22;520;50.932;6.962;2022-07-29T12:10:07;29.20;50.90
1063;DHT22;520;50.932;6.962;2022-07-29T12:12:37;29.10;50.90
1063;DHT22;520;50.932;6.962;2022-07-29T12:15:16;29.10;50.80
1063;DHT22;520;50.932;6.962;2022-07-29T12:17:46;28.90;51.60
1063;DHT22;520;50.932;6.962;2022-07-29T12:20:28;29.00;51.20
1063;DHT22;520;50.932;6.962;2022-07-29T12:22:56;28.80;50.80
1063;DHT22;520;50.932;6.962;2022-07-29T12:25:23;28.40;51.70
1063;DHT22;520;50.932;6.962;2022-07-29T12:28:05;28.00;52.50
1063;DHT22;520;50.932;6.962;2022-07-29T12:30:38;28.00;52.60
1063;DHT22;520;50.932;6.962;2022-07-29T12:33:11;28.10;52.70
1063;DHT22;520;50.932;6.962;2022-07-29T12:35:39;28.20;51.70
1063;DHT22;520;50.932;6.962;2022-07-29T12:38:10;28.10;51.50
1063;DHT22;520;50.932;6.962;2022-07-29T12:40:37;28.00;51.70
1063;DHT22;520;50.932;6.962;2022-07-29T12:45:45;28.80;49.20
1063;DHT22;520;50.932;6.962;2022-07-29T12:48:15;29.80;47.30
1063;DHT22;520;50.932;6.962;2022-07-29T12:50:59;30.30;46.40
1063;DHT22;520;50.932;6.962;2022-07-29T12:53:32;29.50;46.80
1063;DHT22;520;50.932;6.962;2022-07-29T12:55:59;30.00;46.20
1063;DHT22;520;50.932;6.962;2022-07-29T13:01:57;29.90;45.90
1063;DHT22;520;50.932;6.962;2022-07-29T13:04:32;29.80;46.30
1063;DHT22;520;50.932;6.962;2022-07-29T13:07:02;29.70;46.40
1063;DHT22;520;50.932;6.962;2022-07-29T13:09:43;29.80;46.30
1063;DHT22;520;50.932;6.962;2022-07-29T13:12:34;30.20;45.20
1063;DHT22;520;50.932;6.962;2022-07-29T13:15:14;29.70;45.90
1063;DHT22;520;50.932;6.962;2022-07-29T13:17:48;30.40;45.40
1063;DHT22;520;50.932;6.962;2022-07-29T13:20:34;30.80;44.70
1063;DHT22;520;50.932;6.962;2022-07-29T13:23:01;30.10;45.20
1063;DHT22;520;50.932;6.962;2022-07-29T13:25:30;30.20;45.40
1063;DHT22;520;50.932;6.962;2022-07-29T13:28:15;30.10;45.10
1063;DHT22;520;50.932;6.962;2022-07-29T13:30:44;29.90;45.00
1063;DHT22;520;50.932;6.962;2022-07-29T13:33:11;29.90;44.90
1063;DHT22;520;50.932;6.962;2022-07-29T13:35:45;30.00;45.00
1063;DHT22;520;50.932;6.962;2022-07-29T13:38:13;30.20;45.00
1063;DHT22;520;50.932;6.962;2022-07-29T13:40:41;30.10;45.10
1063;DHT22;520;50.932;6.962;2022-07-29T13:43:11;30.50;45.60
1063;DHT22;520;50.932;6.962;2022-07-29T13:45:38;30.30;46.80
1063;DHT22;520;50.932;6.962;2022-07-29T13:48:05;30.30;47.40
1063;DHT22;520;50.932;6.962;2022-07-29T13:50:32;30.30;47.90
1063;DHT22;520;50.932;6.962;2022-07-29T13:52:59;30.10;48.10
1063;DHT22;520;50.932;6.962;2022-07-29T13:55:25;29.70;49.00
1063;DHT22;520;50.932;6.962;2022-07-29T13:57:52;29.60;49.30
1063;DHT22;520;50.932;6.962;2022-07-29T14:00:19;29.70;49.40
1063;DHT22;520;50.932;6.962;2022-07-29T14:02:46;30.10;48.30
1063;DHT22;520;50.932;6.962;2022-07-29T14:05:13;29.70;48.70
1063;DHT22;520;50.932;6.962;2022-07-29T14:07:40;29.40;49.30
1063;DHT22;520;50.932;6.962;2022-07-29T14:10:07;29.20;50.40
1063;DHT22;520;50.932;6.962;2022-07-29T14:12:34;29.10;49.90
1063;DHT22;520;50.932;6.962;2022-07-29T14:15:01;28.90;50.50
1063;DHT22;520;50.932;6.962;2022-07-29T14:17:28;29.00;49.70
1063;DHT22;520;50.932;6.962;2022-07-29T14:19:54;29.10;49.80
1063;DHT22;520;50.932;6.962;2022-07-29T14:22:21;29.40;49.50
1063;DHT22;520;50.932;6.962;2022-07-29T14:24:48;29.30;49.00
1063;DHT22;520;50.932;6.962;2022-07-29T14:27:15;29.10;48.80
1063;DHT22;520;50.932;6.962;2022-07-29T14:29:42;28.90;49.10
1063;DHT22;520;50.932;6.962;2022-07-29T14:32:09;28.90;49.40
1063;DHT22;520;50.932;6.962;2022-07-29T14:34:37;28.90;49.30
1063;DHT22;520;50.932;6.962;2022-07-29T14:37:05;28.80;49.30
1063;DHT22;520;50.932;6.962;2022-07-29T14:39:32;28.50;49.80
1063;DHT22;520;50.932;6.962;2022-07-29T14:42:02;28.40;50.50
1063;DHT22;520;50.932;6.962;2022-07-29T14:44:29;28.30;50.90
1063;DHT22;520;50.932;6.962;2022-07-29T14:47:00;28.40;51.20
1063;DHT22;520;50.932;6.962;2022-07-29T14:49:32;28.40;50.50
1063;DHT22;520;50.932;6.962;2022-07-29T14:51:59;28.40;50.40
1063;DHT22;520;50.932;6.962;2022-07-29T14:54:26;28.40;50.60
1063;DHT22;520;50.932;6.962;2022-07-29T14:56:54;28.30;50.70
1063;DHT22;520;50.932;6.962;2022-07-29T14:59:45;28.50;50.60
1063;DHT22;520;50.932;6.962;2022-07-29T15:02:18;28.40;50.50
1063;DHT22;520;50.932;6.962;2022-07-29T15:04:45;28.50;50.20
1063;DHT22;520;50.932;6.962;2022-07-29T15:07:15;28.50;50.00
1063;DHT22;520;50.932;6.962;2022-07-29T15:09:42;28.60;50.40
1063;DHT22;520;50.932;6.962;2022-07-29T15:12:15;28.70;50.30
1063;DHT22;520;50.932;6.962;2022-07-29T15:14:42;28.80;50.20
1063;DHT22;520;50.932;6.962;2022-07-29T15:17:08;28.60;50.00
1063;DHT22;520;50.932;6.962;2022-07-29T15:19:35;28.70;49.50
1063;DHT22;520;50.932;6.962;2022-07-29T15:22:02;28.60;49.40
1063;DHT22;520;50.932;6.962;2022-07-29T15:24:31;28.50;49.40
1063;DHT22;520;50.932;6.962;2022-07-29T15:26:58;28.50;49.80
1063;DHT22;520;50.932;6.962;2022-07-29T15:29:25;28.60;49.70
1063;DHT22;520;50.932;6.962;2022-07-29T15:31:51;28.50;49.70
1063;DHT22;520;50.932;6.962;2022-07-29T15:34:18;28.40;49.80
1063;DHT22;520;50.932;6.962;2022-07-29T15:36:47;28.70;49.20
1063;DHT22;520;50.932;6.962;2022-07-29T15:39:18;28.70;48.90
1063;DHT22;520;50.932;6.962;2022-07-29T15:41:45;28.60;49.10
1063;DHT22;520;50.932;6.962;2022-07-29T15:44:12;28.50;49.20
1063;DHT22;520;50.932;6.962;2022-07-29T15:46:39;28.40;48.90
1063;DHT22;520;50.932;6.962;2022-07-29T15:49:27;28.50;49.10
1063;DHT22;520;50.932;6.962;2022-07-29T15:52:12;28.90;48.50
1063;DHT22;520;50.932;6.962;2022-07-29T15:54:39;28.80;48.70
1063;DHT22;520;50.932;6.962;2022-07-29T15:57:09;28.70;48.40
1063;DHT22;520;50.932;6.962;2022-07-29T15:59:35;28.50;48.50
1063;DHT22;520;50.932;6.962;2022-07-29T16:02:03;28.30;49.00
1063;DHT22;520;50.932;6.962;2022-07-29T16:04:31;28.40;48.90
1063;DHT22;520;50.932;6.962;2022-07-29T16:06:58;28.40;49.10
1063;DHT22;520;50.932;6.962;2022-07-29T16:09:26;28.50;48.80
1063;DHT22;520;50.932;6.962;2022-07-29T16:11:55;28.30;48.50
1063;DHT22;520;50.932;6.962;2022-07-29T16:14:22;28.30;48.40
1063;DHT22;520;50.932;6.962;2022-07-29T16:16:49;28.20;48.90
1063;DHT22;520;50.932;6.962;2022-07-29T16:19:16;28.10;49.00
1063;DHT22;520;50.932;6.962;2022-07-29T16:21:43;27.90;49.40
1063;DHT22;520;50.932;6.962;2022-07-29T16:24:10;27.90;49.40
1063;DHT22;520;50.932;6.962;2022-07-29T16:26:37;27.90;48.60
1063;DHT22;520;50.932;6.962;2022-07-29T16:29:04;27.80;48.00
1063;DHT22;520;50.932;6.962;2022-07-29T16:31:31;27.70;47.60
1063;DHT22;520;50.932;6.962;2022-07-29T16:33:58;27.40;47.80
1063;DHT22;520;50.932;6.962;2022-07-29T16:36:26;27.40;48.00
1063;DHT22;520;50.932;6.962;2022-07-29T16:38:52;27.40;48.20
1063;DHT22;520;50.932;6.962;2022-07-29T16:41:20;27.50;48.30
1063;DHT22;520;50.932;6.962;2022-07-29T16:43:47;27.60;47.80
1063;DHT22;520;50.932;6.962;2022-07-29T16:46:13;27.50;46.90
1063;DHT22;520;50.932;6.962;2022-07-29T16:48:44;27.40;46.90
1063;DHT22;520;50.932;6.962;2022-07-29T16:51:11;27.40;47.30
1063;DHT22;520;50.932;6.962;2022-07-29T16:53:40;27.50;47.40
1063;DHT22;520;50.932;6.962;2022-07-29T16:56:08;27.50;47.40
1063;DHT22;520;50.932;6.962;2022-07-29T16:58:36;27.60;47.30
1063;DHT22;520;50.932;6.962;2022-07-29T17:01:07;27.50;47.20
1063;DHT22;520;50.932;6.962;2022-07-29T17:03:36;27.60;47.20
1063;DHT22;520;50.932;6.962;2022-07-29T17:06:26;27.60;47.40
1063;DHT22;520;50.932;6.962;2022-07-29T17:08:56;27.50;48.10
1063;DHT22;520;50.932;6.962;2022-07-29T17:11:26;27.70;47.50
1063;DHT22;520;50.932;6.962;2022-07-29T17:14:14;27.90;47.20
1063;DHT22;520;50.932;6.962;2022-07-29T17:16:48;27.90;47.00
1063;DHT22;520;50.932;6.962;2022-07-29T17:19:17;28.00;47.40
1063;DHT22;520;50.932;6.962;2022-07-29T17:21:51;28.00;47.30
1063;DHT22;520;50.932;6.962;2022-07-29T17:24:21;28.00;47.40